sensor_id;sensor_type;location;lat;lon;timestamp;pressure;altitude;pressure_sealevel;temperature;humidity
57616;BME280;43816;52.054;-9.494;2022-08-19T00:00:08;100858.22;;;20.42;50.58
57616;BME280;43816;52.054;-9.494;2022-08-19T00:00:19;100862.00;;;20.41;50.52
57616;BME280;43816;52.054;-9.494;2022-08-19T00:00:29;100857.38;;;20.41;50.52
57616;BME280;43816;52.054;-9.494;2022-08-19T00:00:40;100855.69;;;20.40;50.48
57616;BME280;43816;52.054;-9.494;2022-08-19T00:00:50;100858.22;;;20.42;50.47
57616;BME280;43816;52.054;-9.494;2022-08-19T00:01:00;100851.91;;;20.41;50.56
57616;BME280;43816;52.054;-9.494;2022-08-19T00:01:10;100848.31;;;20.41;50.42
57616;BME280;43816;52.054;-9.494;2022-08-19T00:01:21;100856.53;;;20.41;50.54
57616;BME280;43816;52.054;-9.494;2022-08-19T00:01:32;100854.81;;;20.40;50.65
57616;BME280;43816;52.054;-9.494;2022-08-19T00:01:44;100853.78;;;20.41;50.60
57616;BME280;43816;52.054;-9.494;2022-08-19T00:01:56;100853.78;;;20.41;50.60
57616;BME280;43816;52.054;-9.494;2022-08-19T00:02:07;100855.50;;;20.42;50.74
57616;BME280;43816;52.054;-9.494;2022-08-19T00:02:18;100851.06;;;20.41;50.56
57616;BME280;43816;52.054;-9.494;2022-08-19T00:02:28;100852.06;;;20.40;50.78
57616;BME280;43816;52.054;-9.494;2022-08-19T00:02:38;100854.81;;;20.40;50.69
57616;BME280;43816;52.054;-9.494;2022-08-19T00:02:48;100851.22;;;20.39;50.53
57616;BME280;43816;52.054;-9.494;2022-08-19T00:02:59;100853.97;;;20.39;50.54
57616;BME280;43816;52.054;-9.494;2022-08-19T00:03:09;100855.84;;;20.39;50.66
57616;BME280;43816;52.054;-9.494;2022-08-19T00:03:19;100854.97;;;20.38;50.80
57616;BME280;43816;52.054;-9.494;2022-08-19T00:03:30;100850.56;;;20.37;50.65
57616;BME280;43816;52.054;-9.494;2022-08-19T00:03:40;100855.16;;;20.37;50.67
57616;BME280;43816;52.054;-9.494;2022-08-19T00:03:50;100853.31;;;20.37;50.48
57616;BME280;43816;52.054;-9.494;2022-08-19T00:04:03;100854.97;;;20.38;50.57
57616;BME280;43816;52.054;-9.494;2022-08-19T00:04:16;100854.16;;;20.38;50.69
57616;BME280;43816;52.054;-9.494;2022-08-19T00:04:30;100852.25;;;20.38;50.65
57616;BME280;43816;52.054;-9.494;2022-08-19T00:04:41;100860.63;;;20.37;50.75
57616;BME280;43816;52.054;-9.494;2022-08-19T00:04:51;100855.16;;;20.37;50.57
57616;BME280;43816;52.054;-9.494;2022-08-19T00:05:03;100853.31;;;20.37;50.58
57616;BME280;43816;52.054;-9.494;2022-08-19T00:05:14;100858.78;;;20.37;50.48
57616;BME280;43816;52.054;-9.494;2022-08-19T00:05:24;100857.06;;;20.36;50.55
57616;BME280;43816;52.054;-9.494;2022-08-19T00:05:35;100856.03;;;20.37;50.65
57616;BME280;43816;52.054;-9.494;2022-08-19T00:05:45;100848.00;;;20.36;50.81
57616;BME280;43816;52.054;-9.494;2022-08-19T00:05:55;100856.03;;;20.37;50.57
57616;BME280;43816;52.054;-9.494;2022-08-19T00:06:06;100858.94;;;20.36;50.66
57616;BME280;43816;52.054;-9.494;2022-08-19T00:06:16;100855.16;;;20.37;50.75
57616;BME280;43816;52.054;-9.494;2022-08-19T00:06:28;100857.91;;;20.37;50.87
57616;BME280;43816;52.054;-9.494;2022-08-19T00:06:41;100857.91;;;20.37;50.59
57616;BME280;43816;52.054;-9.494;2022-08-19T00:06:52;100852.63;;;20.35;50.95
57616;BME280;43816;52.054;-9.494;2022-08-19T00:07:05;100858.09;;;20.35;50.51
57616;BME280;43816;52.054;-9.494;2022-08-19T00:07:15;100854.50;;;20.34;50.58
57616;BME280;43816;52.054;-9.494;2022-08-19T00:07:25;100861.69;;;20.36;50.77
57616;BME280;43816;52.054;-9.494;2022-08-19T00:07:36;100857.22;;;20.34;50.60
57616;BME280;43816;52.054;-9.494;2022-08-19T00:07:47;100864.41;;;20.36;50.63
57616;BME280;43816;52.054;-9.494;2022-08-19T00:07:58;100858.94;;;20.36;50.41
57616;BME280;43816;52.054;-9.494;2022-08-19T00:08:08;100858.09;;;20.35;50.76
57616;BME280;43816;52.054;-9.494;2022-08-19T00:08:18;100859.13;;;20.34;50.77
57616;BME280;43816;52.054;-9.494;2022-08-19T00:08:29;100855.53;;;20.33;50.40
57616;BME280;43816;52.054;-9.494;2022-08-19T00:08:39;100857.22;;;20.34;50.52
57616;BME280;43816;52.054;-9.494;2022-08-19T00:08:49;100846.31;;;20.34;50.24
57616;BME280;43816;52.054;-9.494;2022-08-19T00:08:59;100857.22;;;20.34;50.48
57616;BME280;43816;52.054;-9.494;2022-08-19T00:09:15;100851.59;;;20.36;50.40
57616;BME280;43816;52.054;-9.494;2022-08-19T00:09:26;100854.31;;;20.36;50.64
57616;BME280;43816;52.054;-9.494;2022-08-19T00:09:36;100855.16;;;20.37;50.54
57616;BME280;43816;52.054;-9.494;2022-08-19T00:09:47;100850.75;;;20.36;50.52
57616;BME280;43816;52.054;-9.494;2022-08-19T00:09:57;100854.31;;;20.36;50.89
57616;BME280;43816;52.054;-9.494;2022-08-19T00:10:08;100859.78;;;20.36;50.43
57616;BME280;43816;52.054;-9.494;2022-08-19T00:10:20;100849.91;;;20.35;50.57
57616;BME280;43816;52.054;-9.494;2022-08-19T00:10:30;100852.63;;;20.35;50.56
57616;BME280;43816;52.054;-9.494;2022-08-19T00:10:40;100856.22;;;20.36;50.71
57616;BME280;43816;52.054;-9.494;2022-08-19T00:10:51;100851.75;;;20.34;50.53
57616;BME280;43816;52.054;-9.494;2022-08-19T00:11:01;100850.09;;;20.33;50.52
57616;BME280;43816;52.054;-9.494;2022-08-19T00:11:12;100850.94;;;20.34;50.62
57616;BME280;43816;52.054;-9.494;2022-08-19T00:11:23;100846.31;;;20.34;51.08
57616;BME280;43816;52.054;-9.494;2022-08-19T00:11:34;100848.19;;;20.34;50.73
57616;BME280;43816;52.054;-9.494;2022-08-19T00:11:44;100857.22;;;20.34;50.68
57616;BME280;43816;52.054;-9.494;2022-08-19T00:11:56;100850.09;;;20.33;50.69
57616;BME280;43816;52.054;-9.494;2022-08-19T00:12:06;100847.34;;;20.33;50.54
57616;BME280;43816;52.054;-9.494;2022-08-19T00:12:17;100845.63;;;20.32;50.52
57616;BME280;43816;52.054;-9.494;2022-08-19T00:12:27;100847.53;;;20.32;50.54
57616;BME280;43816;52.054;-9.494;2022-08-19T00:12:38;100847.53;;;20.32;50.51
57616;BME280;43816;52.054;-9.494;2022-08-19T00:12:48;100845.63;;;20.32;50.44
57616;BME280;43816;52.054;-9.494;2022-08-19T00:12:58;100850.09;;;20.33;50.57
57616;BME280;43816;52.054;-9.494;2022-08-19T00:13:08;100848.38;;;20.32;50.55
57616;BME280;43816;52.054;-9.494;2022-08-19T00:13:19;100851.09;;;20.32;50.74
57616;BME280;43816;52.054;-9.494;2022-08-19T00:13:29;100853.84;;;20.32;50.57
57616;BME280;43816;52.054;-9.494;2022-08-19T00:13:39;100847.53;;;20.32;50.62
57616;BME280;43816;52.054;-9.494;2022-08-19T00:13:50;100846.66;;;20.31;50.68
57616;BME280;43816;52.054;-9.494;2022-08-19T00:14:00;100846.66;;;20.31;50.50
57616;BME280;43816;52.054;-9.494;2022-08-19T00:14:13;100849.38;;;20.31;50.54
57616;BME280;43816;52.054;-9.494;2022-08-19T00:14:25;100848.38;;;20.32;50.60
57616;BME280;43816;52.054;-9.494;2022-08-19T00:14:36;100841.19;;;20.31;50.20
57616;BME280;43816;52.054;-9.494;2022-08-19T00:14:46;100849.38;;;20.31;50.45
57616;BME280;43816;52.054;-9.494;2022-08-19T00:14:56;100848.38;;;20.32;50.50
57616;BME280;43816;52.054;-9.494;2022-08-19T00:15:09;100842.06;;;20.32;50.66
57616;BME280;43816;52.054;-9.494;2022-08-19T00:15:21;100845.81;;;20.31;50.63
57616;BME280;43816;52.054;-9.494;2022-08-19T00:15:31;100845.81;;;20.31;50.47
57616;BME280;43816;52.054;-9.494;2022-08-19T00:15:42;100851.28;;;20.31;50.52
57616;BME280;43816;52.054;-9.494;2022-08-19T00:15:52;100850.25;;;20.32;50.51
57616;BME280;43816;52.054;-9.494;2022-08-19T00:16:03;100852.13;;;20.31;50.59
57616;BME280;43816;52.054;-9.494;2022-08-19T00:16:14;100848.38;;;20.32;50.51
57616;BME280;43816;52.054;-9.494;2022-08-19T00:16:25;100848.38;;;20.32;50.41
57616;BME280;43816;52.054;-9.494;2022-08-19T00:16:37;100845.81;;;20.31;50.68
57616;BME280;43816;52.054;-9.494;2022-08-19T00:16:48;100851.09;;;20.32;50.38
57616;BME280;43816;52.054;-9.494;2022-08-19T00:16:59;100852.13;;;20.31;50.52
57616;BME280;43816;52.054;-9.494;2022-08-19T00:17:10;100854.00;;;20.31;50.52
57616;BME280;43816;52.054;-9.494;2022-08-19T00:17:21;100849.38;;;20.31;50.66
57616;BME280;43816;52.054;-9.494;2022-08-19T00:17:31;100846.66;;;20.31;50.68
57616;BME280;43816;52.054;-9.494;2022-08-19T00:17:43;100850.44;;;20.30;50.63
57616;BME280;43816;52.054;-9.494;2022-08-19T00:17:54;100847.72;;;20.30;50.77
57616;BME280;43816;52.054;-9.494;2022-08-19T00:18:04;100854.00;;;20.31;50.51
57616;BME280;43816;52.054;-9.494;2022-08-19T00:18:14;100857.75;;;20.30;50.44
57616;BME280;43816;52.054;-9.494;2022-08-19T00:18:25;100852.31;;;20.30;50.57
57616;BME280;43816;52.054;-9.494;2022-08-19T00:18:35;100853.16;;;20.30;50.57
57616;BME280;43816;52.054;-9.494;2022-08-19T00:18:47;100850.44;;;20.30;50.67
57616;BME280;43816;52.054;-9.494;2022-08-19T00:18:57;100859.66;;;20.29;50.62
57616;BME280;43816;52.054;-9.494;2022-08-19T00:19:08;100863.22;;;20.30;50.54
57616;BME280;43816;52.054;-9.494;2022-08-19T00:19:20;100861.38;;;20.30;50.62
57616;BME280;43816;52.054;-9.494;2022-08-19T00:19:30;100859.66;;;20.29;50.44
57616;BME280;43816;52.054;-9.494;2022-08-19T00:19:41;100862.38;;;20.29;50.46
57616;BME280;43816;52.054;-9.494;2022-08-19T00:19:51;100854.19;;;20.29;50.45
57616;BME280;43816;52.054;-9.494;2022-08-19T00:20:02;100858.81;;;20.29;50.61
57616;BME280;43816;52.054;-9.494;2022-08-19T00:20:16;100858.81;;;20.29;50.70
57616;BME280;43816;52.054;-9.494;2022-08-19T00:20:27;100859.66;;;20.29;50.66
57616;BME280;43816;52.054;-9.494;2022-08-19T00:20:37;100851.47;;;20.29;50.48
57616;BME280;43816;52.054;-9.494;2022-08-19T00:20:47;100859.66;;;20.29;50.58
57616;BME280;43816;52.054;-9.494;2022-08-19T00:20:58;100853.34;;;20.29;50.57
57616;BME280;43816;52.054;-9.494;2022-08-19T00:21:08;100859.66;;;20.29;50.44
57616;BME280;43816;52.054;-9.494;2022-08-19T00:21:18;100859.66;;;20.29;50.73
57616;BME280;43816;52.054;-9.494;2022-08-19T00:21:28;100857.97;;;20.28;50.94
57616;BME280;43816;52.054;-9.494;2022-08-19T00:21:39;100857.97;;;20.28;50.61
57616;BME280;43816;52.054;-9.494;2022-08-19T00:21:50;100857.09;;;20.28;50.62
57616;BME280;43816;52.054;-9.494;2022-08-19T00:22:01;100852.50;;;20.28;50.57
57616;BME280;43816;52.054;-9.494;2022-08-19T00:22:11;100858.81;;;20.29;50.71
57616;BME280;43816;52.054;-9.494;2022-08-19T00:22:21;100846.16;;;20.28;50.58
57616;BME280;43816;52.054;-9.494;2022-08-19T00:22:32;100857.97;;;20.28;50.27
57616;BME280;43816;52.054;-9.494;2022-08-19T00:22:43;100857.97;;;20.28;50.38
57616;BME280;43816;52.054;-9.494;2022-08-19T00:22:54;100849.78;;;20.28;50.49
57616;BME280;43816;52.054;-9.494;2022-08-19T00:23:04;100853.53;;;20.27;50.55
57616;BME280;43816;52.054;-9.494;2022-08-19T00:23:14;100845.31;;;20.27;50.41
57616;BME280;43816;52.054;-9.494;2022-08-19T00:23:25;100853.53;;;20.27;50.70
57616;BME280;43816;52.054;-9.494;2022-08-19T00:23:36;100853.53;;;20.27;50.73
57616;BME280;43816;52.054;-9.494;2022-08-19T00:23:46;100849.06;;;20.26;50.48
57616;BME280;43816;52.054;-9.494;2022-08-19T00:23:57;100857.28;;;20.26;50.51
57616;BME280;43816;52.054;-9.494;2022-08-19T00:24:09;100849.06;;;20.26;50.58
57616;BME280;43816;52.054;-9.494;2022-08-19T00:24:20;100854.53;;;20.26;50.72
57616;BME280;43816;52.054;-9.494;2022-08-19T00:24:31;100849.06;;;20.26;50.65
57616;BME280;43816;52.054;-9.494;2022-08-19T00:24:41;100859.00;;;20.27;50.74
57616;BME280;43816;52.054;-9.494;2022-08-19T00:24:52;100856.25;;;20.27;50.53
57616;BME280;43816;52.054;-9.494;2022-08-19T00:25:03;100857.28;;;20.26;50.77
57616;BME280;43816;52.054;-9.494;2022-08-19T00:25:14;100852.69;;;20.27;50.54
57616;BME280;43816;52.054;-9.494;2022-08-19T00:25:25;100858.16;;;20.27;50.57
57616;BME280;43816;52.054;-9.494;2022-08-19T00:25:35;100860.88;;;20.27;50.58
57616;BME280;43816;52.054;-9.494;2022-08-19T00:25:45;100850.97;;;20.26;50.65
57616;BME280;43816;52.054;-9.494;2022-08-19T00:25:55;100859.16;;;20.26;50.76
57616;BME280;43816;52.054;-9.494;2022-08-19T00:26:07;100860.00;;;20.26;50.65
57616;BME280;43816;52.054;-9.494;2022-08-19T00:26:17;100862.75;;;20.26;50.64
57616;BME280;43816;52.054;-9.494;2022-08-19T00:26:28;100860.00;;;20.26;50.59
57616;BME280;43816;52.054;-9.494;2022-08-19T00:26:39;100859.00;;;20.27;50.46
57616;BME280;43816;52.054;-9.494;2022-08-19T00:26:50;100860.00;;;20.26;50.41
57616;BME280;43816;52.054;-9.494;2022-08-19T00:27:01;100866.34;;;20.27;50.55
57616;BME280;43816;52.054;-9.494;2022-08-19T00:27:11;100859.16;;;20.26;50.60
57616;BME280;43816;52.054;-9.494;2022-08-19T00:27:22;100856.44;;;20.26;50.49
57616;BME280;43816;52.054;-9.494;2022-08-19T00:27:32;100869.25;;;20.25;50.50
57616;BME280;43816;52.054;-9.494;2022-08-19T00:27:43;100863.78;;;20.25;50.61
57616;BME280;43816;52.054;-9.494;2022-08-19T00:27:53;100863.78;;;20.25;50.38
57616;BME280;43816;52.054;-9.494;2022-08-19T00:28:04;100861.06;;;20.25;50.51
57616;BME280;43816;52.054;-9.494;2022-08-19T00:28:14;100861.06;;;20.25;50.52
57616;BME280;43816;52.054;-9.494;2022-08-19T00:28:25;100863.78;;;20.25;50.53
57616;BME280;43816;52.054;-9.494;2022-08-19T00:28:35;100861.06;;;20.25;50.58
57616;BME280;43816;52.054;-9.494;2022-08-19T00:28:46;100862.75;;;20.26;50.70
57616;BME280;43816;52.054;-9.494;2022-08-19T00:28:56;100859.34;;;20.24;50.63
57616;BME280;43816;52.054;-9.494;2022-08-19T00:29:09;100863.78;;;20.25;50.69
57616;BME280;43816;52.054;-9.494;2022-08-19T00:29:20;100863.78;;;20.25;50.73
57616;BME280;43816;52.054;-9.494;2022-08-19T00:29:31;100862.06;;;20.24;50.69
57616;BME280;43816;52.054;-9.494;2022-08-19T00:29:41;100861.06;;;20.25;50.77
57616;BME280;43816;52.054;-9.494;2022-08-19T00:29:52;100866.53;;;20.25;50.77
57616;BME280;43816;52.054;-9.494;2022-08-19T00:30:04;100864.81;;;20.24;50.53
57616;BME280;43816;52.054;-9.494;2022-08-19T00:30:15;100865.66;;;20.25;50.55
57616;BME280;43816;52.054;-9.494;2022-08-19T00:30:25;100859.34;;;20.24;50.60
57616;BME280;43816;52.054;-9.494;2022-08-19T00:30:36;100863.97;;;20.24;50.69
57616;BME280;43816;52.054;-9.494;2022-08-19T00:30:46;100865.81;;;20.23;50.78
57616;BME280;43816;52.054;-9.494;2022-08-19T00:30:57;100865.81;;;20.23;50.82
57616;BME280;43816;52.054;-9.494;2022-08-19T00:31:08;100860.34;;;20.23;50.63
57616;BME280;43816;52.054;-9.494;2022-08-19T00:31:19;100866.88;;;20.22;50.62
57616;BME280;43816;52.054;-9.494;2022-08-19T00:31:29;100864.13;;;20.22;50.61
57616;BME280;43816;52.054;-9.494;2022-08-19T00:31:39;100866.03;;;20.22;50.76
57616;BME280;43816;52.054;-9.494;2022-08-19T00:31:51;100859.53;;;20.23;50.58
57616;BME280;43816;52.054;-9.494;2022-08-19T00:32:01;100866.03;;;20.22;50.61
57616;BME280;43816;52.054;-9.494;2022-08-19T00:32:12;100860.56;;;20.22;50.63
57616;BME280;43816;52.054;-9.494;2022-08-19T00:32:22;100856.97;;;20.21;50.83
57616;BME280;43816;52.054;-9.494;2022-08-19T00:32:33;100862.44;;;20.21;50.70
57616;BME280;43816;52.054;-9.494;2022-08-19T00:32:43;100864.13;;;20.22;50.77
57616;BME280;43816;52.054;-9.494;2022-08-19T00:32:54;100863.31;;;20.22;50.55
57616;BME280;43816;52.054;-9.494;2022-08-19T00:33:04;100862.25;;;20.23;50.71
57616;BME280;43816;52.054;-9.494;2022-08-19T00:33:14;100864.13;;;20.22;50.78
57616;BME280;43816;52.054;-9.494;2022-08-19T00:33:25;100866.03;;;20.22;50.66
57616;BME280;43816;52.054;-9.494;2022-08-19T00:33:36;100861.59;;;20.21;50.71
57616;BME280;43816;52.054;-9.494;2022-08-19T00:33:46;100866.03;;;20.22;50.52
57616;BME280;43816;52.054;-9.494;2022-08-19T00:33:57;100866.88;;;20.22;50.77
57616;BME280;43816;52.054;-9.494;2022-08-19T00:34:07;100863.31;;;20.22;50.58
57616;BME280;43816;52.054;-9.494;2022-08-19T00:34:17;100864.97;;;20.23;50.61
57616;BME280;43816;52.054;-9.494;2022-08-19T00:34:27;100861.41;;;20.22;50.81
57616;BME280;43816;52.054;-9.494;2022-08-19T00:34:38;100866.88;;;20.22;50.79
57616;BME280;43816;52.054;-9.494;2022-08-19T00:34:48;100867.88;;;20.21;50.60
57616;BME280;43816;52.054;-9.494;2022-08-19T00:34:58;100863.31;;;20.22;50.60
57616;BME280;43816;52.054;-9.494;2022-08-19T00:35:09;100866.03;;;20.22;50.62
57616;BME280;43816;52.054;-9.494;2022-08-19T00:35:19;100857.84;;;20.22;50.85
57616;BME280;43816;52.054;-9.494;2022-08-19T00:35:29;100863.31;;;20.22;50.64
57616;BME280;43816;52.054;-9.494;2022-08-19T00:35:40;100867.88;;;20.21;50.68
57616;BME280;43816;52.054;-9.494;2022-08-19T00:35:50;100867.88;;;20.21;50.71
57616;BME280;43816;52.054;-9.494;2022-08-19T00:36:02;100867.06;;;20.21;50.60
57616;BME280;43816;52.054;-9.494;2022-08-19T00:36:12;100867.06;;;20.21;50.60
57616;BME280;43816;52.054;-9.494;2022-08-19T00:36:23;100875.91;;;20.23;50.75
57616;BME280;43816;52.054;-9.494;2022-08-19T00:36:33;100865.16;;;20.21;50.81
57616;BME280;43816;52.054;-9.494;2022-08-19T00:36:44;100865.16;;;20.21;50.71
57616;BME280;43816;52.054;-9.494;2022-08-19T00:36:55;100862.59;;;20.20;50.69
57616;BME280;43816;52.054;-9.494;2022-08-19T00:37:06;100865.34;;;20.20;50.61
57616;BME280;43816;52.054;-9.494;2022-08-19T00:37:16;100866.22;;;20.20;50.61
57616;BME280;43816;52.054;-9.494;2022-08-19T00:37:27;100868.75;;;20.22;50.77
57616;BME280;43816;52.054;-9.494;2022-08-19T00:37:38;100858.00;;;20.20;50.37
57616;BME280;43816;52.054;-9.494;2022-08-19T00:37:49;100866.22;;;20.20;50.80
57616;BME280;43816;52.054;-9.494;2022-08-19T00:37:59;100860.75;;;20.20;50.55
57616;BME280;43816;52.054;-9.494;2022-08-19T00:38:10;100862.44;;;20.21;50.58
57616;BME280;43816;52.054;-9.494;2022-08-19T00:38:20;100863.47;;;20.20;50.55
57616;BME280;43816;52.054;-9.494;2022-08-19T00:38:30;100865.34;;;20.20;50.67
57616;BME280;43816;52.054;-9.494;2022-08-19T00:38:41;100861.75;;;20.19;50.55
57616;BME280;43816;52.054;-9.494;2022-08-19T00:38:51;100855.47;;;20.19;50.67
57616;BME280;43816;52.054;-9.494;2022-08-19T00:39:02;100860.91;;;20.19;50.55
57616;BME280;43816;52.054;-9.494;2022-08-19T00:39:14;100862.78;;;20.18;50.81
57616;BME280;43816;52.054;-9.494;2022-08-19T00:39:25;100857.31;;;20.18;50.64
57616;BME280;43816;52.054;-9.494;2022-08-19T00:39:35;100860.75;;;20.20;50.64
57616;BME280;43816;52.054;-9.494;2022-08-19T00:39:45;100859.03;;;20.19;50.81
57616;BME280;43816;52.054;-9.494;2022-08-19T00:39:55;100864.50;;;20.19;50.75
57616;BME280;43816;52.054;-9.494;2022-08-19T00:40:07;100859.03;;;20.19;50.31
57616;BME280;43816;52.054;-9.494;2022-08-19T00:40:18;100863.66;;;20.19;50.69
57616;BME280;43816;52.054;-9.494;2022-08-19T00:40:28;100862.78;;;20.18;50.62
57616;BME280;43816;52.054;-9.494;2022-08-19T00:40:39;100861.94;;;20.18;50.73
57616;BME280;43816;52.054;-9.494;2022-08-19T00:40:49;100863.66;;;20.19;50.59
57616;BME280;43816;52.054;-9.494;2022-08-19T00:40:59;100852.72;;;20.19;50.64
57616;BME280;43816;52.054;-9.494;2022-08-19T00:41:14;100855.47;;;20.19;50.80
57616;BME280;43816;52.054;-9.494;2022-08-19T00:41:25;100860.03;;;20.18;50.63
57616;BME280;43816;52.054;-9.494;2022-08-19T00:41:36;100858.19;;;20.19;50.59
57616;BME280;43816;52.054;-9.494;2022-08-19T00:41:50;100860.75;;;20.20;50.61
57616;BME280;43816;52.054;-9.494;2022-08-19T00:42:01;100861.75;;;20.19;50.62
57616;BME280;43816;52.054;-9.494;2022-08-19T00:42:11;100858.19;;;20.19;50.86
57616;BME280;43816;52.054;-9.494;2022-08-19T00:42:22;100857.31;;;20.18;50.89
57616;BME280;43816;52.054;-9.494;2022-08-19T00:42:32;100854.41;;;20.20;50.68
57616;BME280;43816;52.054;-9.494;2022-08-19T00:42:42;100859.88;;;20.20;50.79
57616;BME280;43816;52.054;-9.494;2022-08-19T00:42:53;100851.84;;;20.18;50.62
57616;BME280;43816;52.054;-9.494;2022-08-19T00:43:09;100860.03;;;20.18;50.59
57616;BME280;43816;52.054;-9.494;2022-08-19T00:43:22;100852.91;;;20.17;50.74
57616;BME280;43816;52.054;-9.494;2022-08-19T00:43:33;100862.78;;;20.18;50.59
57616;BME280;43816;52.054;-9.494;2022-08-19T00:43:43;100857.31;;;20.18;50.63
57616;BME280;43816;52.054;-9.494;2022-08-19T00:44:24;100855.63;;;20.17;50.58
57616;BME280;43816;52.054;-9.494;2022-08-19T00:44:35;100858.38;;;20.17;50.59
57616;BME280;43816;52.054;-9.494;2022-08-19T00:44:46;100854.75;;;20.17;50.51
57616;BME280;43816;52.054;-9.494;2022-08-19T00:44:56;100862.13;;;20.16;50.74
57616;BME280;43816;52.054;-9.494;2022-08-19T00:45:27;100857.66;;;20.15;50.65
57616;BME280;43816;52.054;-9.494;2022-08-19T00:45:39;100853.91;;;20.16;50.59
57616;BME280;43816;52.054;-9.494;2022-08-19T00:45:49;100857.50;;;20.17;50.82
57616;BME280;43816;52.054;-9.494;2022-08-19T00:45:59;100854.94;;;20.15;50.70
57616;BME280;43816;52.054;-9.494;2022-08-19T00:46:10;100852.22;;;20.15;50.67
57616;BME280;43816;52.054;-9.494;2022-08-19T00:46:20;100849.47;;;20.15;50.74
57616;BME280;43816;52.054;-9.494;2022-08-19T00:46:32;100853.25;;;20.14;50.81
57616;BME280;43816;52.054;-9.494;2022-08-19T00:46:44;100852.41;;;20.13;50.98
57616;BME280;43816;52.054;-9.494;2022-08-19T00:46:57;100858.53;;;20.15;50.69
57616;BME280;43816;52.054;-9.494;2022-08-19T00:47:08;100853.91;;;20.16;50.77
57616;BME280;43816;52.054;-9.494;2022-08-19T00:47:19;100853.06;;;20.15;50.77
57616;BME280;43816;52.054;-9.494;2022-08-19T00:47:29;100859.56;;;20.14;50.77
57616;BME280;43816;52.054;-9.494;2022-08-19T00:47:39;100858.53;;;20.15;50.81
57616;BME280;43816;52.054;-9.494;2022-08-19T00:47:49;100852.03;;;20.17;50.75
57616;BME280;43816;52.054;-9.494;2022-08-19T00:48:00;100847.78;;;20.14;50.74
57616;BME280;43816;52.054;-9.494;2022-08-19T00:48:10;100854.09;;;20.14;50.74
57616;BME280;43816;52.054;-9.494;2022-08-19T00:48:21;100856.00;;;20.14;50.61
57616;BME280;43816;52.054;-9.494;2022-08-19T00:48:33;100851.53;;;20.13;50.90
57616;BME280;43816;52.054;-9.494;2022-08-19T00:48:43;100852.41;;;20.13;50.64
57616;BME280;43816;52.054;-9.494;2022-08-19T00:48:54;100859.56;;;20.14;50.92
57616;BME280;43816;52.054;-9.494;2022-08-19T00:49:10;100847.13;;;20.12;50.71
57616;BME280;43816;52.054;-9.494;2022-08-19T00:49:31;100845.06;;;20.14;50.71
57616;BME280;43816;52.054;-9.494;2022-08-19T00:49:49;100850.53;;;20.14;50.66
57616;BME280;43816;52.054;-9.494;2022-08-19T00:50:00;100843.34;;;20.13;50.74
57616;BME280;43816;52.054;-9.494;2022-08-19T00:50:13;100843.34;;;20.13;50.80
57616;BME280;43816;52.054;-9.494;2022-08-19T00:50:24;100851.53;;;20.13;50.61
57616;BME280;43816;52.054;-9.494;2022-08-19T00:50:34;100850.53;;;20.14;50.60
57616;BME280;43816;52.054;-9.494;2022-08-19T00:50:46;100858.72;;;20.14;50.90
57616;BME280;43816;52.054;-9.494;2022-08-19T00:50:58;100845.22;;;20.12;50.66
57616;BME280;43816;52.054;-9.494;2022-08-19T00:51:08;100847.13;;;20.12;50.70
57616;BME280;43816;52.054;-9.494;2022-08-19T00:51:18;100846.94;;;20.13;50.56
57616;BME280;43816;52.054;-9.494;2022-08-19T00:51:30;100847.97;;;20.12;50.93
57616;BME280;43816;52.054;-9.494;2022-08-19T00:51:42;100846.06;;;20.13;50.83
57616;BME280;43816;52.054;-9.494;2022-08-19T00:52:07;100844.41;;;20.12;50.76
57616;BME280;43816;52.054;-9.494;2022-08-19T00:52:31;100847.13;;;20.12;50.69
57616;BME280;43816;52.054;-9.494;2022-08-19T00:52:45;100844.41;;;20.12;50.77
57616;BME280;43816;52.054;-9.494;2022-08-19T00:52:56;100843.69;;;20.10;50.50
57616;BME280;43816;52.054;-9.494;2022-08-19T00:53:07;100847.13;;;20.12;50.58
57616;BME280;43816;52.054;-9.494;2022-08-19T00:53:19;100848.16;;;20.11;50.79
57616;BME280;43816;52.054;-9.494;2022-08-19T00:53:31;100839.94;;;20.11;50.80
57616;BME280;43816;52.054;-9.494;2022-08-19T00:53:42;100846.25;;;20.11;50.78
57616;BME280;43816;52.054;-9.494;2022-08-19T00:53:54;100844.56;;;20.10;50.93
57616;BME280;43816;52.054;-9.494;2022-08-19T00:54:05;100842.69;;;20.11;50.93
57616;BME280;43816;52.054;-9.494;2022-08-19T00:54:15;100835.50;;;20.10;50.87
57616;BME280;43816;52.054;-9.494;2022-08-19T00:54:27;100833.81;;;20.09;50.81
57616;BME280;43816;52.054;-9.494;2022-08-19T00:54:39;100842.69;;;20.11;50.76
57616;BME280;43816;52.054;-9.494;2022-08-19T00:54:50;100839.28;;;20.09;50.86
57616;BME280;43816;52.054;-9.494;2022-08-19T00:55:04;100846.59;;;20.08;50.86
57616;BME280;43816;52.054;-9.494;2022-08-19T00:55:24;100833.81;;;20.09;50.57
57616;BME280;43816;52.054;-9.494;2022-08-19T00:55:36;100838.25;;;20.10;50.76
57616;BME280;43816;52.054;-9.494;2022-08-19T00:55:50;100839.28;;;20.09;50.94
57616;BME280;43816;52.054;-9.494;2022-08-19T00:56:02;100842.84;;;20.09;50.77
57616;BME280;43816;52.054;-9.494;2022-08-19T00:56:13;100840.13;;;20.09;50.82
57616;BME280;43816;52.054;-9.494;2022-08-19T00:56:23;100842.00;;;20.09;50.65
57616;BME280;43816;52.054;-9.494;2022-08-19T00:56:35;100831.09;;;20.09;50.75
57616;BME280;43816;52.054;-9.494;2022-08-19T00:56:45;100842.00;;;20.09;50.58
57616;BME280;43816;52.054;-9.494;2022-08-19T00:56:56;100835.69;;;20.08;50.70
57616;BME280;43816;52.054;-9.494;2022-08-19T00:57:09;100838.41;;;20.08;50.86
57616;BME280;43816;52.054;-9.494;2022-08-19T00:57:27;100847.47;;;20.09;50.68
57616;BME280;43816;52.054;-9.494;2022-08-19T00:57:40;100842.00;;;20.09;50.95
57616;BME280;43816;52.054;-9.494;2022-08-19T00:57:56;100844.75;;;20.09;50.77
57616;BME280;43816;52.054;-9.494;2022-08-19T00:58:10;100838.25;;;20.10;50.93
57616;BME280;43816;52.054;-9.494;2022-08-19T00:58:25;100839.94;;;20.11;50.77